sensor_id;sensor_type;location;lat;lon;timestamp;pressure;altitude;pressure_sealevel;temperature;humidity
74675;BME280;63200;48.810;12.352;2022-11-30T00:02:14;97708.91;;;3.20;80.06
74675;BME280;63200;48.810;12.352;2022-11-30T00:04:40;97749.81;;;3.45;80.22
74675;BME280;63200;48.810;12.352;2022-11-30T00:07:05;97763.13;;;3.52;80.03
74675;BME280;63200;48.810;12.352;2022-11-30T00:09:30;97760.19;;;3.54;79.16
74675;BME280;63200;48.810;12.352;2022-11-30T00:11:56;97738.34;;;3.38;79.02
74675;BME280;63200;48.810;12.352;2022-11-30T00:14:21;97766.13;;;3.56;79.17
74675;BME280;63200;48.810;12.352;2022-11-30T00:16:46;97760.31;;;3.59;78.75
74675;BME280;63200;48.810;12.352;2022-11-30T00:19:12;97764.97;;;3.75;77.94
74675;BME280;63200;48.810;12.352;2022-11-30T00:21:37;97756.00;;;3.58;78.14
74675;BME280;63200;48.810;12.352;2022-11-30T00:24:04;97749.09;;;3.38;79.21
74675;BME280;63200;48.810;12.352;2022-11-30T00:26:29;97760.28;;;3.35;79.77
74675;BME280;63200;48.810;12.352;2022-11-30T00:28:54;97764.00;;;3.34;79.80
74675;BME280;63200;48.810;12.352;2022-11-30T00:31:20;97759.25;;;3.36;79.82
74675;BME280;63200;48.810;12.352;2022-11-30T00:33:45;97757.25;;;3.31;79.95
74675;BME280;63200;48.810;12.352;2022-11-30T00:36:16;97764.38;;;3.38;80.16
74675;BME280;63200;48.810;12.352;2022-11-30T00:38:42;97768.69;;;3.39;80.08
74675;BME280;63200;48.810;12.352;2022-11-30T00:41:08;97774.63;;;3.41;80.32
74675;BME280;63200;48.810;12.352;2022-11-30T00:43:34;97754.44;;;3.38;79.97
74675;BME280;63200;48.810;12.352;2022-11-30T00:45:59;97771.72;;;3.42;80.27
74675;BME280;63200;48.810;12.352;2022-11-30T00:48:25;97775.44;;;3.41;79.75
74675;BME280;63200;48.810;12.352;2022-11-30T00:50:50;97782.22;;;3.44;80.36
74675;BME280;63200;48.810;12.352;2022-11-30T00:53:16;97770.69;;;3.43;80.23
74675;BME280;63200;48.810;12.352;2022-11-30T00:55:43;97782.03;;;3.45;79.87
74675;BME280;63200;48.810;12.352;2022-11-30T00:58:09;97780.63;;;3.43;79.87
74675;BME280;63200;48.810;12.352;2022-11-30T01:00:34;97788.88;;;3.41;79.98
74675;BME280;63200;48.810;12.352;2022-11-30T01:03:00;97788.88;;;3.41;80.09
74675;BME280;63200;48.810;12.352;2022-11-30T01:05:27;97798.56;;;3.42;79.95
74675;BME280;63200;48.810;12.352;2022-11-30T01:07:53;97790.75;;;3.41;80.12
74675;BME280;63200;48.810;12.352;2022-11-30T01:10:18;97798.78;;;3.41;80.38
74675;BME280;63200;48.810;12.352;2022-11-30T01:12:44;97756.66;;;3.17;80.55
74675;BME280;63200;48.810;12.352;2022-11-30T01:15:09;97796.34;;;3.39;80.10
74675;BME280;63200;48.810;12.352;2022-11-30T01:17:35;97796.34;;;3.39;80.57
74675;BME280;63200;48.810;12.352;2022-11-30T01:20:00;97771.22;;;3.22;80.57
74675;BME280;63200;48.810;12.352;2022-11-30T01:22:25;97807.09;;;3.39;80.65
74675;BME280;63200;48.810;12.352;2022-11-30T01:24:51;97807.09;;;3.39;81.06
74675;BME280;63200;48.810;12.352;2022-11-30T01:27:16;97803.81;;;3.37;80.50
74675;BME280;63200;48.810;12.352;2022-11-30T01:29:41;97803.94;;;3.42;80.08
74675;BME280;63200;48.810;12.352;2022-11-30T01:32:07;97804.88;;;3.36;80.62
74675;BME280;63200;48.810;12.352;2022-11-30T01:34:32;97809.63;;;3.34;80.53
74675;BME280;63200;48.810;12.352;2022-11-30T01:36:58;97811.84;;;3.37;80.49
74675;BME280;63200;48.810;12.352;2022-11-30T01:39:23;97804.03;;;3.36;81.04
74675;BME280;63200;48.810;12.352;2022-11-30T01:41:49;97812.31;;;3.34;80.45
74675;BME280;63200;48.810;12.352;2022-11-30T01:51:39;97816.41;;;3.37;80.69
74675;BME280;63200;48.810;12.352;2022-11-30T01:54:13;97807.56;;;3.36;81.10
74675;BME280;63200;48.810;12.352;2022-11-30T01:56:46;97806.47;;;3.37;80.99
74675;BME280;63200;48.810;12.352;2022-11-30T01:59:12;97800.06;;;3.38;80.86
74675;BME280;63200;48.810;12.352;2022-11-30T02:01:39;97804.97;;;3.41;81.25
74675;BME280;63200;48.810;12.352;2022-11-30T02:04:14;97810.94;;;3.43;80.87
74675;BME280;63200;48.810;12.352;2022-11-30T02:06:43;97799.59;;;3.41;80.77
74675;BME280;63200;48.810;12.352;2022-11-30T02:09:10;97803.13;;;3.42;80.77
74675;BME280;63200;48.810;12.352;2022-11-30T02:11:36;97803.94;;;3.42;80.86
74675;BME280;63200;48.810;12.352;2022-11-30T02:16:55;97801.47;;;3.41;80.86
74675;BME280;63200;48.810;12.352;2022-11-30T02:19:47;97802.75;;;3.38;81.30
74675;BME280;63200;48.810;12.352;2022-11-30T02:22:31;97764.31;;;3.14;81.14
74675;BME280;63200;48.810;12.352;2022-11-30T02:30:36;97805.78;;;3.30;80.58
74675;BME280;63200;48.810;12.352;2022-11-30T02:33:15;97803.47;;;3.33;80.48
74675;BME280;63200;48.810;12.352;2022-11-30T02:35:47;97802.06;;;3.31;80.26
74675;BME280;63200;48.810;12.352;2022-11-30T02:38:14;97793.28;;;3.24;80.96
74675;BME280;63200;48.810;12.352;2022-11-30T02:40:39;97804.59;;;3.26;81.02
74675;BME280;63200;48.810;12.352;2022-11-30T02:43:05;97807.19;;;3.32;80.80
74675;BME280;63200;48.810;12.352;2022-11-30T02:48:10;97809.00;;;3.20;80.29
74675;BME280;63200;48.810;12.352;2022-11-30T02:50:50;97801.19;;;3.19;80.44
74675;BME280;63200;48.810;12.352;2022-11-30T02:53:17;97803.88;;;3.19;81.08
74675;BME280;63200;48.810;12.352;2022-11-30T02:55:43;97803.63;;;3.20;80.94
74675;BME280;63200;48.810;12.352;2022-11-30T02:58:08;97812.94;;;3.36;80.08
74675;BME280;63200;48.810;12.352;2022-11-30T03:00:34;97812.41;;;3.27;79.65
74675;BME280;63200;48.810;12.352;2022-11-30T03:02:59;97820.28;;;3.10;80.22
74675;BME280;63200;48.810;12.352;2022-11-30T03:05:25;97810.69;;;3.03;80.42
74675;BME280;63200;48.810;12.352;2022-11-30T03:07:50;97793.94;;;3.07;79.88
74675;BME280;63200;48.810;12.352;2022-11-30T03:10:15;97815.72;;;3.11;79.80
74675;BME280;63200;48.810;12.352;2022-11-30T03:12:41;97818.78;;;3.14;79.53
74675;BME280;63200;48.810;12.352;2022-11-30T03:15:06;97817.84;;;3.09;80.17
74675;BME280;63200;48.810;12.352;2022-11-30T03:17:32;97785.34;;;2.87;80.10
74675;BME280;63200;48.810;12.352;2022-11-30T03:19:57;97792.91;;;2.90;79.97
74675;BME280;63200;48.810;12.352;2022-11-30T03:22:23;97830.44;;;3.08;79.91
74675;BME280;63200;48.810;12.352;2022-11-30T03:24:48;97823.16;;;2.97;80.24
74675;BME280;63200;48.810;12.352;2022-11-30T03:27:13;97807.63;;;2.87;79.93
74675;BME280;63200;48.810;12.352;2022-11-30T03:29:39;97828.09;;;3.12;79.53
74675;BME280;63200;48.810;12.352;2022-11-30T03:32:04;97814.41;;;3.02;79.75
74675;BME280;63200;48.810;12.352;2022-11-30T03:34:30;97833.13;;;3.08;79.62
74675;BME280;63200;48.810;12.352;2022-11-30T03:36:55;97828.63;;;3.21;79.39
74675;BME280;63200;48.810;12.352;2022-11-30T03:39:21;97795.91;;;2.81;79.83
74675;BME280;63200;48.810;12.352;2022-11-30T03:41:48;97822.97;;;3.10;79.79
74675;BME280;63200;48.810;12.352;2022-11-30T03:44:13;97812.16;;;2.87;79.88
74675;BME280;63200;48.810;12.352;2022-11-30T03:46:38;97838.50;;;3.20;79.19
74675;BME280;63200;48.810;12.352;2022-11-30T03:49:04;97819.53;;;2.91;80.14
74675;BME280;63200;48.810;12.352;2022-11-30T03:51:30;97777.31;;;2.68;79.99
74675;BME280;63200;48.810;12.352;2022-11-30T03:53:55;97828.00;;;2.88;80.80
74675;BME280;63200;48.810;12.352;2022-11-30T03:56:20;97821.59;;;2.89;80.51
74675;BME280;63200;48.810;12.352;2022-11-30T03:58:46;97830.34;;;2.85;80.76
74675;BME280;63200;48.810;12.352;2022-11-30T04:01:14;97839.25;;;2.97;81.36
74675;BME280;63200;48.810;12.352;2022-11-30T04:03:41;97787.91;;;2.63;80.58
74675;BME280;63200;48.810;12.352;2022-11-30T04:06:08;97821.09;;;2.80;80.31
74675;BME280;63200;48.810;12.352;2022-11-30T04:08:34;97841.66;;;2.87;80.46
74675;BME280;63200;48.810;12.352;2022-11-30T04:11:00;97836.75;;;2.83;80.97
74675;BME280;63200;48.810;12.352;2022-11-30T04:13:27;97847.25;;;2.85;81.32
74675;BME280;63200;48.810;12.352;2022-11-30T04:15:53;97848.88;;;2.86;81.39
74675;BME280;63200;48.810;12.352;2022-11-30T04:18:20;97839.56;;;2.89;81.41
74675;BME280;63200;48.810;12.352;2022-11-30T04:20:49;97845.16;;;2.87;80.69
74675;BME280;63200;48.810;12.352;2022-11-30T04:23:14;97837.78;;;2.82;81.19
74675;BME280;63200;48.810;12.352;2022-11-30T04:25:40;97834.78;;;2.91;80.76
74675;BME280;63200;48.810;12.352;2022-11-30T04:28:07;97810.19;;;2.63;80.92
74675;BME280;63200;48.810;12.352;2022-11-30T04:30:33;97834.66;;;2.67;81.34
74675;BME280;63200;48.810;12.352;2022-11-30T04:32:59;97756.38;;;2.28;80.83
74675;BME280;63200;48.810;12.352;2022-11-30T04:35:25;97837.56;;;2.65;80.35
74675;BME280;63200;48.810;12.352;2022-11-30T04:37:51;97830.66;;;2.58;81.38
74675;BME280;63200;48.810;12.352;2022-11-30T04:40:16;97832.66;;;2.62;81.25
74675;BME280;63200;48.810;12.352;2022-11-30T04:42:42;97835.72;;;2.66;81.07
74675;BME280;63200;48.810;12.352;2022-11-30T04:45:08;97811.31;;;2.56;80.56
74675;BME280;63200;48.810;12.352;2022-11-30T04:47:33;97834.00;;;2.72;80.39
74675;BME280;63200;48.810;12.352;2022-11-30T04:49:58;97828.25;;;2.68;80.48
74675;BME280;63200;48.810;12.352;2022-11-30T04:52:24;97840.63;;;2.69;80.19
74675;BME280;63200;48.810;12.352;2022-11-30T04:54:49;97836.13;;;2.81;79.49
74675;BME280;63200;48.810;12.352;2022-11-30T04:57:16;97842.50;;;2.69;79.78
74675;BME280;63200;48.810;12.352;2022-11-30T04:59:41;97854.50;;;2.66;80.37
74675;BME280;63200;48.810;12.352;2022-11-30T05:02:07;97832.59;;;2.69;79.58
74675;BME280;63200;48.810;12.352;2022-11-30T05:04:32;97850.53;;;2.69;80.01
74675;BME280;63200;48.810;12.352;2022-11-30T05:06:57;97848.38;;;2.59;80.68
74675;BME280;63200;48.810;12.352;2022-11-30T05:09:22;97853.72;;;2.59;80.27
74675;BME280;63200;48.810;12.352;2022-11-30T05:11:48;97849.72;;;2.49;80.86
74675;BME280;63200;48.810;12.352;2022-11-30T05:14:13;97849.47;;;2.51;81.38
74675;BME280;63200;48.810;12.352;2022-11-30T05:16:39;97862.88;;;2.51;80.57
74675;BME280;63200;48.810;12.352;2022-11-30T05:19:04;97828.19;;;2.38;80.62
74675;BME280;63200;48.810;12.352;2022-11-30T05:21:30;97816.81;;;2.42;79.53
74675;BME280;63200;48.810;12.352;2022-11-30T05:23:55;97855.06;;;2.49;78.77
74675;BME280;63200;48.810;12.352;2022-11-30T05:26:21;97854.25;;;2.49;80.05
74675;BME280;63200;48.810;12.352;2022-11-30T05:28:46;97849.94;;;2.48;79.65
74675;BME280;63200;48.810;12.352;2022-11-30T05:31:11;97840.47;;;2.45;79.95
74675;BME280;63200;48.810;12.352;2022-11-30T05:33:37;97848.66;;;2.50;80.02
74675;BME280;63200;48.810;12.352;2022-11-30T05:36:02;97834.59;;;2.37;79.76
74675;BME280;63200;48.810;12.352;2022-11-30T05:38:28;97859.41;;;2.50;79.83
74675;BME280;63200;48.810;12.352;2022-11-30T05:40:59;97851.13;;;2.52;80.24
74675;BME280;63200;48.810;12.352;2022-11-30T05:43:25;97807.94;;;2.23;80.15
74675;BME280;63200;48.810;12.352;2022-11-30T05:45:50;97855.69;;;2.52;78.51
74675;BME280;63200;48.810;12.352;2022-11-30T05:48:16;97859.97;;;2.53;78.99
74675;BME280;63200;48.810;12.352;2022-11-30T05:50:41;97857.91;;;2.55;79.26
74675;BME280;63200;48.810;12.352;2022-11-30T05:53:06;97864.28;;;2.54;78.82
74675;BME280;63200;48.810;12.352;2022-11-30T05:55:32;97821.94;;;2.25;78.77
74675;BME280;63200;48.810;12.352;2022-11-30T05:57:57;97862.22;;;2.56;78.46
74675;BME280;63200;48.810;12.352;2022-11-30T06:00:23;97880.75;;;2.57;78.31
74675;BME280;63200;48.810;12.352;2022-11-30T06:02:54;97824.56;;;2.32;77.46
74675;BME280;63200;48.810;12.352;2022-11-30T06:05:19;97875.78;;;2.61;77.92
74675;BME280;63200;48.810;12.352;2022-11-30T06:07:44;97875.84;;;2.54;78.10
74675;BME280;63200;48.810;12.352;2022-11-30T06:10:10;97880.16;;;2.55;78.59
74675;BME280;63200;48.810;12.352;2022-11-30T06:12:35;97870.69;;;2.53;78.28
74675;BME280;63200;48.810;12.352;2022-11-30T06:15:01;97878.97;;;2.51;78.61
74675;BME280;63200;48.810;12.352;2022-11-30T06:17:27;97876.44;;;2.56;78.80
74675;BME280;63200;48.810;12.352;2022-11-30T06:19:52;97878.47;;;2.61;78.07
74675;BME280;63200;48.810;12.352;2022-11-30T06:22:18;97873.03;;;2.67;78.04
74675;BME280;63200;48.810;12.352;2022-11-30T06:24:43;97882.19;;;2.78;77.06
74675;BME280;63200;48.810;12.352;2022-11-30T06:27:08;97862.22;;;2.56;76.97
74675;BME280;63200;48.810;12.352;2022-11-30T06:29:33;97883.81;;;2.61;77.13
74675;BME280;63200;48.810;12.352;2022-11-30T06:31:59;97883.06;;;2.54;77.47
74675;BME280;63200;48.810;12.352;2022-11-30T06:34:24;97887.00;;;2.51;78.07
74675;BME280;63200;48.810;12.352;2022-11-30T06:36:49;97884.56;;;2.49;77.94
74675;BME280;63200;48.810;12.352;2022-11-30T06:39:15;97858.69;;;2.37;78.40
74675;BME280;63200;48.810;12.352;2022-11-30T06:41:40;97889.03;;;2.56;78.65
74675;BME280;63200;48.810;12.352;2022-11-30T06:44:09;97861.75;;;2.40;78.35
74675;BME280;63200;48.810;12.352;2022-11-30T06:46:35;97883.91;;;2.54;78.15
74675;BME280;63200;48.810;12.352;2022-11-30T06:49:01;97892.44;;;2.63;78.26
74675;BME280;63200;48.810;12.352;2022-11-30T06:51:26;97886.19;;;2.69;77.49
74675;BME280;63200;48.810;12.352;2022-11-30T06:53:52;97888.56;;;2.59;77.66
74675;BME280;63200;48.810;12.352;2022-11-30T06:56:17;97886.34;;;2.56;78.72
74675;BME280;63200;48.810;12.352;2022-11-30T06:58:42;97892.91;;;2.60;78.38
74675;BME280;63200;48.810;12.352;2022-11-30T07:01:10;97893.78;;;2.54;79.04
74675;BME280;63200;48.810;12.352;2022-11-30T07:03:36;97897.06;;;2.56;79.14
74675;BME280;63200;48.810;12.352;2022-11-30T07:06:06;97858.78;;;2.30;79.24
74675;BME280;63200;48.810;12.352;2022-11-30T07:08:33;97907.94;;;2.61;79.23
74675;BME280;63200;48.810;12.352;2022-11-30T07:10:58;97906.53;;;2.58;79.81
74675;BME280;63200;48.810;12.352;2022-11-30T07:13:24;97911.91;;;2.58;79.23
74675;BME280;63200;48.810;12.352;2022-11-30T07:15:49;97901.91;;;2.65;79.24
74675;BME280;63200;48.810;12.352;2022-11-30T07:18:15;97889.63;;;2.58;79.36
74675;BME280;63200;48.810;12.352;2022-11-30T07:20:41;97903.94;;;2.70;79.34
74675;BME280;63200;48.810;12.352;2022-11-30T07:23:06;97910.56;;;2.67;79.22
74675;BME280;63200;48.810;12.352;2022-11-30T07:26:02;97911.44;;;2.80;78.45
74675;BME280;63200;48.810;12.352;2022-11-30T07:28:31;97908.31;;;2.83;78.21
74675;BME280;63200;48.810;12.352;2022-11-30T07:30:56;97907.56;;;2.76;77.81
74675;BME280;63200;48.810;12.352;2022-11-30T07:33:21;97918.38;;;2.69;78.02
74675;BME280;63200;48.810;12.352;2022-11-30T07:35:47;97911.22;;;2.63;77.20
74675;BME280;63200;48.810;12.352;2022-11-30T07:38:12;97907.50;;;2.64;77.07
74675;BME280;63200;48.810;12.352;2022-11-30T07:40:37;97908.53;;;2.63;77.49
74675;BME280;63200;48.810;12.352;2022-11-30T07:43:03;97895.66;;;2.53;77.09
74675;BME280;63200;48.810;12.352;2022-11-30T07:45:28;97885.34;;;2.50;76.60
74675;BME280;63200;48.810;12.352;2022-11-30T07:47:53;97919.88;;;2.83;75.75
74675;BME280;63200;48.810;12.352;2022-11-30T07:50:19;97876.34;;;2.63;75.02
74675;BME280;63200;48.810;12.352;2022-11-30T07:52:44;97928.88;;;2.89;74.74
74675;BME280;63200;48.810;12.352;2022-11-30T07:55:09;97926.66;;;2.86;74.80
74675;BME280;63200;48.810;12.352;2022-11-30T07:57:34;97926.34;;;2.76;74.96
74675;BME280;63200;48.810;12.352;2022-11-30T08:00:00;97885.44;;;2.43;75.36
74675;BME280;63200;48.810;12.352;2022-11-30T08:02:26;97918.22;;;2.64;75.35
74675;BME280;63200;48.810;12.352;2022-11-30T08:04:51;97927.75;;;2.78;74.01
74675;BME280;63200;48.810;12.352;2022-11-30T08:07:17;97932.59;;;2.70;74.78
74675;BME280;63200;48.810;12.352;2022-11-30T08:09:42;97938.72;;;2.77;74.23
74675;BME280;63200;48.810;12.352;2022-11-30T08:12:09;97929.69;;;2.90;73.20
74675;BME280;63200;48.810;12.352;2022-11-30T08:14:35;97903.56;;;2.66;73.42
74675;BME280;63200;48.810;12.352;2022-11-30T08:17:00;97928.28;;;2.69;74.11
74675;BME280;63200;48.810;12.352;2022-11-30T08:19:26;97934.00;;;2.72;74.36
74675;BME280;63200;48.810;12.352;2022-11-30T08:21:51;97927.38;;;2.75;74.91
74675;BME280;63200;48.810;12.352;2022-11-30T08:24:17;97926.97;;;2.78;75.16
74675;BME280;63200;48.810;12.352;2022-11-30T08:26:43;97929.75;;;2.83;75.13
74675;BME280;63200;48.810;12.352;2022-11-30T08:29:09;97928.16;;;2.82;75.27
74675;BME280;63200;48.810;12.352;2022-11-30T08:31:37;97929.41;;;2.98;74.42
74675;BME280;63200;48.810;12.352;2022-11-30T08:34:11;97923.44;;;2.96;74.25
74675;BME280;63200;48.810;12.352;2022-11-30T08:36:37;97938.88;;;3.00;73.38
74675;BME280;63200;48.810;12.352;2022-11-30T08:39:04;97937.06;;;2.94;73.32
74675;BME280;63200;48.810;12.352;2022-11-30T08:41:31;97943.09;;;2.90;73.64
74675;BME280;63200;48.810;12.352;2022-11-30T08:43:57;97948.91;;;2.87;73.95
74675;BME280;63200;48.810;12.352;2022-11-30T08:46:23;97909.53;;;2.69;73.68
74675;BME280;63200;48.810;12.352;2022-11-30T08:48:49;97947.72;;;3.01;74.05
74675;BME280;63200;48.810;12.352;2022-11-30T08:51:17;97956.38;;;3.03;73.50
74675;BME280;63200;48.810;12.352;2022-11-30T08:53:43;97919.25;;;2.81;72.79
74675;BME280;63200;48.810;12.352;2022-11-30T08:56:17;97950.63;;;2.99;72.35
74675;BME280;63200;48.810;12.352;2022-11-30T08:58:43;97959.72;;;2.98;72.74
74675;BME280;63200;48.810;12.352;2022-11-30T09:03:34;97935.97;;;2.83;72.49
74675;BME280;63200;48.810;12.352;2022-11-30T09:08:37;97956.06;;;2.93;72.42
74675;BME280;63200;48.810;12.352;2022-11-30T09:11:11;97962.69;;;2.90;72.88
74675;BME280;63200;48.810;12.352;2022-11-30T09:13:37;97964.78;;;2.88;72.73
74675;BME280;63200;48.810;12.352;2022-11-30T09:16:03;97965.31;;;2.97;73.46
74675;BME280;63200;48.810;12.352;2022-11-30T09:18:29;97960.25;;;2.89;73.64
74675;BME280;63200;48.810;12.352;2022-11-30T09:21:02;97968.16;;;3.02;73.28
74675;BME280;63200;48.810;12.352;2022-11-30T09:23:28;97977.47;;;2.99;73.72
74675;BME280;63200;48.810;12.352;2022-11-30T09:25:55;97970.44;;;2.98;73.20
74675;BME280;63200;48.810;12.352;2022-11-30T09:28:21;97977.00;;;3.03;73.56
74675;BME280;63200;48.810;12.352;2022-11-30T09:30:46;97972.69;;;3.02;73.47
74675;BME280;63200;48.810;12.352;2022-11-30T09:33:11;97972.69;;;3.02;73.28
74675;BME280;63200;48.810;12.352;2022-11-30T09:35:36;97965.97;;;3.11;73.22
74675;BME280;63200;48.810;12.352;2022-11-30T09:38:02;97960.25;;;3.07;73.04
74675;BME280;63200;48.810;12.352;2022-11-30T09:40:29;97966.03;;;3.04;73.78
74675;BME280;63200;48.810;12.352;2022-11-30T09:45:43;97961.28;;;3.06;74.77
74675;BME280;63200;48.810;12.352;2022-11-30T09:50:59;97956.13;;;3.23;73.51
74675;BME280;63200;48.810;12.352;2022-11-30T09:53:40;97959.56;;;3.12;74.29
74675;BME280;63200;48.810;12.352;2022-11-30T09:56:26;97963.81;;;3.20;73.02
74675;BME280;63200;48.810;12.352;2022-11-30T10:01:25;97956.44;;;3.15;73.25
74675;BME280;63200;48.810;12.352;2022-11-30T10:03:51;97960.03;;;3.09;74.15
74675;BME280;63200;48.810;12.352;2022-11-30T10:06:25;97962.31;;;3.24;73.18
74675;BME280;63200;48.810;12.352;2022-11-30T10:08:55;97959.63;;;3.24;73.19
74675;BME280;63200;48.810;12.352;2022-11-30T10:11:56;97946.97;;;3.31;72.68
74675;BME280;63200;48.810;12.352;2022-11-30T10:19:58;97952.53;;;3.29;71.78
74675;BME280;63200;48.810;12.352;2022-11-30T10:27:50;97963.00;;;3.19;71.43
74675;BME280;63200;48.810;12.352;2022-11-30T10:30:19;97924.69;;;2.93;71.30
74675;BME280;63200;48.810;12.352;2022-11-30T10:32:50;97917.41;;;2.82;71.83
74675;BME280;63200;48.810;12.352;2022-11-30T10:35:22;97952.50;;;3.17;71.96
74675;BME280;63200;48.810;12.352;2022-11-30T10:37:50;97876.13;;;2.64;72.09
74675;BME280;63200;48.810;12.352;2022-11-30T10:40:39;97944.31;;;3.12;71.16
74675;BME280;63200;48.810;12.352;2022-11-30T10:43:19;97957.13;;;3.10;71.71
74675;BME280;63200;48.810;12.352;2022-11-30T10:45:47;97943.31;;;3.07;72.55
74675;BME280;63200;48.810;12.352;2022-11-30T10:48:24;97943.53;;;3.05;72.72
74675;BME280;63200;48.810;12.352;2022-11-30T10:50:51;97929.53;;;3.22;71.90
74675;BME280;63200;48.810;12.352;2022-11-30T10:53:17;97922.16;;;2.98;73.45
74675;BME280;63200;48.810;12.352;2022-11-30T10:55:46;97942.50;;;3.06;73.40
74675;BME280;63200;48.810;12.352;2022-11-30T10:58:35;97890.16;;;2.85;73.48
74675;BME280;63200;48.810;12.352;2022-11-30T11:01:08;97926.94;;;3.15;73.90
74675;BME280;63200;48.810;12.352;2022-11-30T11:03:34;97922.59;;;3.32;73.23
74675;BME280;63200;48.810;12.352;2022-11-30T11:08:37;97920.56;;;3.58;72.18
74675;BME280;63200;48.810;12.352;2022-11-30T11:11:36;97930.69;;;3.44;72.46
74675;BME280;63200;48.810;12.352;2022-11-30T11:19:44;97940.38;;;3.45;72.89
74675;BME280;63200;48.810;12.352;2022-11-30T11:22:14;97938.03;;;3.79;71.16
74675;BME280;63200;48.810;12.352;2022-11-30T11:24:41;97931.50;;;3.75;70.83
74675;BME280;63200;48.810;12.352;2022-11-30T11:30:28;97934.53;;;3.79;72.02
74675;BME280;63200;48.810;12.352;2022-11-30T11:33:00;97937.91;;;3.74;71.91
74675;BME280;63200;48.810;12.352;2022-11-30T11:35:53;97924.75;;;3.84;71.17
74675;BME280;63200;48.810;12.352;2022-11-30T11:38:26;97929.03;;;3.74;71.29
74675;BME280;63200;48.810;12.352;2022-11-30T11:40:57;97933.13;;;3.76;70.49
74675;BME280;63200;48.810;12.352;2022-11-30T11:43:26;97893.75;;;3.70;69.29
74675;BME280;63200;48.810;12.352;2022-11-30T11:46:08;97928.28;;;3.97;69.00
74675;BME280;63200;48.810;12.352;2022-11-30T11:48:38;97925.59;;;3.97;68.93
74675;BME280;63200;48.810;12.352;2022-11-30T11:51:06;97918.94;;;3.88;69.08
74675;BME280;63200;48.810;12.352;2022-11-30T11:56:18;97922.75;;;3.80;69.64
74675;BME280;63200;48.810;12.352;2022-11-30T12:06:58;97906.00;;;3.66;68.45
74675;BME280;63200;48.810;12.352;2022-11-30T12:09:30;97891.13;;;3.52;69.09
74675;BME280;63200;48.810;12.352;2022-11-30T12:11:58;97917.59;;;3.66;69.54
74675;BME280;63200;48.810;12.352;2022-11-30T12:14:24;97923.00;;;3.78;69.28
74675;BME280;63200;48.810;12.352;2022-11-30T12:19:26;97925.34;;;3.87;69.20
74675;BME280;63200;48.810;12.352;2022-11-30T12:24:54;97922.28;;;3.83;69.99
74675;BME280;63200;48.810;12.352;2022-11-30T12:27:36;97923.59;;;3.92;69.12
74675;BME280;63200;48.810;12.352;2022-11-30T12:30:20;97919.63;;;3.95;67.66
74675;BME280;63200;48.810;12.352;2022-11-30T12:33:06;97924.31;;;3.88;68.75
74675;BME280;63200;48.810;12.352;2022-11-30T12:36:19;97924.75;;;3.84;69.47
74675;BME280;63200;48.810;12.352;2022-11-30T12:51:39;97917.78;;;4.07;69.16
74675;BME280;63200;48.810;12.352;2022-11-30T12:54:23;97878.16;;;3.79;69.51
74675;BME280;63200;48.810;12.352;2022-11-30T12:56:53;97917.63;;;3.90;69.55
74675;BME280;63200;48.810;12.352;2022-11-30T13:05:03;97913.03;;;3.67;70.61
74675;BME280;63200;48.810;12.352;2022-11-30T13:07:42;97858.84;;;3.28;70.52
74675;BME280;63200;48.810;12.352;2022-11-30T13:12:54;97923.75;;;3.67;69.58
74675;BME280;63200;48.810;12.352;2022-11-30T13:15:26;97925.50;;;3.61;70.37
74675;BME280;63200;48.810;12.352;2022-11-30T13:17:53;97923.19;;;3.77;69.46
74675;BME280;63200;48.810;12.352;2022-11-30T13:20:24;97884.88;;;3.58;69.48
74675;BME280;63200;48.810;12.352;2022-11-30T13:23:13;97872.00;;;3.17;71.12
74675;BME280;63200;48.810;12.352;2022-11-30T13:25:46;97912.13;;;3.43;71.58
74675;BME280;63200;48.810;12.352;2022-11-30T13:31:16;97907.97;;;3.28;72.13
74675;BME280;63200;48.810;12.352;2022-11-30T13:33:47;97913.59;;;3.27;72.64
74675;BME280;63200;48.810;12.352;2022-11-30T13:41:37;97924.13;;;3.40;72.02
74675;BME280;63200;48.810;12.352;2022-11-30T13:44:04;97926.59;;;3.42;72.00
74675;BME280;63200;48.810;12.352;2022-11-30T13:46:29;97921.00;;;3.43;71.18
74675;BME280;63200;48.810;12.352;2022-11-30T13:49:17;97921.25;;;3.23;71.79
74675;BME280;63200;48.810;12.352;2022-11-30T13:51:43;97921.03;;;3.25;72.23
74675;BME280;63200;48.810;12.352;2022-11-30T13:59:57;97858.97;;;3.03;71.24
74675;BME280;63200;48.810;12.352;2022-11-30T14:05:20;97924.31;;;3.57;70.93
74675;BME280;63200;48.810;12.352;2022-11-30T14:10:39;97910.44;;;3.30;71.00
74675;BME280;63200;48.810;12.352;2022-11-30T14:18:15;97926.25;;;3.20;72.00
74675;BME280;63200;48.810;12.352;2022-11-30T14:23:46;97924.19;;;3.03;74.17
74675;BME280;63200;48.810;12.352;2022-11-30T14:26:14;97918.81;;;3.03;73.72
74675;BME280;63200;48.810;12.352;2022-11-30T14:29:12;97932.25;;;3.03;74.36
74675;BME280;63200;48.810;12.352;2022-11-30T14:34:28;97910.72;;;2.91;74.83
74675;BME280;63200;48.810;12.352;2022-11-30T14:37:09;97936.69;;;3.09;75.37
74675;BME280;63200;48.810;12.352;2022-11-30T14:39:42;97938.19;;;3.05;74.86
74675;BME280;63200;48.810;12.352;2022-11-30T14:42:25;97929.09;;;3.06;75.31
74675;BME280;63200;48.810;12.352;2022-11-30T14:44:51;97889.03;;;2.74;75.54
74675;BME280;63200;48.810;12.352;2022-11-30T14:47:31;97938.41;;;3.04;75.64
74675;BME280;63200;48.810;12.352;2022-11-30T14:49:59;97883.28;;;2.71;76.05
74675;BME280;63200;48.810;12.352;2022-11-30T14:55:27;97930.91;;;2.94;76.40
74675;BME280;63200;48.810;12.352;2022-11-30T15:00:41;97928.81;;;2.96;76.94
74675;BME280;63200;48.810;12.352;2022-11-30T15:03:31;97923.44;;;2.96;76.71
74675;BME280;63200;48.810;12.352;2022-11-30T15:06:02;97925.72;;;2.92;76.96
74675;BME280;63200;48.810;12.352;2022-11-30T15:08:35;97919.09;;;2.95;76.90
74675;BME280;63200;48.810;12.352;2022-11-30T15:11:07;97922.84;;;2.94;76.66
74675;BME280;63200;48.810;12.352;2022-11-30T15:13:37;97921.06;;;2.88;77.26
74675;BME280;63200;48.810;12.352;2022-11-30T15:16:08;97921.88;;;2.88;76.60